Main page
METAR-TAF:

METAR-TAF

Airports :

Sukkur Airport

Sukkur, Pakistan

latitude: 27-43-19N, longitude: 068-47-31E, elevation: 60 m

Current weather observation

The report was made 17 minutes ago, at 03:00 UTC
Calm wind
Temperature 25°C
Humidity 57%
Pressure
Visibility: 1010 m
haze

METAR: OPSK 190300Z 00000KT 2500 HZ NSC 25/16 QNH 1010 NOSIG

Time: 08:17 (03:17 UTC)

Forecast

The report was made 5 hours and 17 minutes ago, at 22:00 UTC
Forecast valid from 19 at 00 UTC to 19 at 24 UTC
Wind 7 kt from the South
Visibility: 5000 m
haze
Temporary
from 19 at 00 UTC to 19 at 04 UTC
Wind 3 kt from variable directions
Visibility: 3000 m
haze
From UTC
Wind 5 kt from the Southeast
Visibility: 4000 m
haze

TAF: OPSK 182200Z 1900/1924 18007KT 5000 HZ NSC TEMPO 1900/1904 VRB03KT 3000 HZ NSC FM 191800Z 13005KT 4000 HZ NSC

Weather observations and forecasts of more than 4000 airports (METAR and TAF reports).

The available stations are represented by yellow and red dots on the map.

Hover mouse over dot to see the name of the station.

Then click to see weather observations and forecasts.

To change the map : click on the green buttons with a black cross to zoom in, on the green button with a dash to zoom out, or on the green arrows for adjacent maps.


METAR-TAF: